createdAt,value
2022-12-13T00:00:45.977Z,996.9
2022-12-13T00:02:02.274Z,996.9
2022-12-13T00:03:18.576Z,996.8
2022-12-13T00:04:34.873Z,996.8
2022-12-13T00:05:51.168Z,996.8
2022-12-13T00:07:06.475Z,996.9
2022-12-13T00:08:22.768Z,996.8
2022-12-13T00:09:39.068Z,996.9
2022-12-13T00:10:55.355Z,996.8
2022-12-13T00:12:11.653Z,996.8
2022-12-13T00:13:27.941Z,996.9
2022-12-13T00:14:44.246Z,996.9
2022-12-13T00:16:00.533Z,996.8
2022-12-13T00:17:16.826Z,996.8
2022-12-13T00:18:33.125Z,996.8
2022-12-13T00:19:49.418Z,996.9
2022-12-13T00:21:05.719Z,996.8
2022-12-13T00:22:22.012Z,996.9
2022-12-13T00:23:38.304Z,996.8
2022-12-13T00:24:53.624Z,996.8
2022-12-13T00:26:09.917Z,996.8
2022-12-13T00:27:26.200Z,996.8
2022-12-13T00:28:42.495Z,996.8
2022-12-13T00:29:58.799Z,996.8
2022-12-13T00:31:15.090Z,996.8
2022-12-13T00:32:31.384Z,996.8
2022-12-13T00:33:47.692Z,996.8
2022-12-13T00:35:03.974Z,996.8
2022-12-13T00:36:20.267Z,996.7
2022-12-13T00:37:35.584Z,996.7
2022-12-13T00:38:51.890Z,996.7
2022-12-13T00:40:08.170Z,996.7
2022-12-13T00:41:24.468Z,996.7
2022-12-13T00:42:40.774Z,996.7
2022-12-13T00:43:57.063Z,996.7
2022-12-13T00:45:13.349Z,996.7
2022-12-13T00:46:29.647Z,996.7
2022-12-13T00:47:45.946Z,996.7
2022-12-13T00:49:02.318Z,996.7
2022-12-13T00:50:18.603Z,996.7
2022-12-13T00:51:34.908Z,996.7
2022-12-13T00:52:51.202Z,996.7
2022-12-13T00:54:06.507Z,996.7
2022-12-13T00:55:22.805Z,996.7
2022-12-13T00:56:39.096Z,996.7
2022-12-13T00:57:55.390Z,996.7
2022-12-13T00:59:11.688Z,996.7
2022-12-13T01:00:27.972Z,996.6
2022-12-13T01:01:44.280Z,996.6
2022-12-13T01:03:00.574Z,996.6
2022-12-13T01:04:16.858Z,996.7
2022-12-13T01:05:33.161Z,996.7
2022-12-13T01:06:49.455Z,996.7
2022-12-13T01:08:05.752Z,996.7
2022-12-13T01:09:22.039Z,996.6
2022-12-13T01:10:38.332Z,996.6
2022-12-13T01:11:53.650Z,996.6
2022-12-13T01:13:09.951Z,996.6
2022-12-13T01:14:26.239Z,996.6
2022-12-13T01:15:42.544Z,996.6
2022-12-13T01:16:58.829Z,996.6
2022-12-13T01:18:15.132Z,996.6
2022-12-13T01:19:31.412Z,996.6
2022-12-13T01:20:47.712Z,996.6
2022-12-13T01:22:04.000Z,996.6
2022-12-13T01:23:20.301Z,996.5
2022-12-13T01:24:36.594Z,996.5
2022-12-13T01:25:52.896Z,996.5
2022-12-13T01:27:09.199Z,996.5
2022-12-13T01:28:25.473Z,996.5
2022-12-13T01:29:40.791Z,996.5
2022-12-13T01:30:57.086Z,996.5
2022-12-13T01:32:13.393Z,996.5
2022-12-13T01:33:29.681Z,996.4
2022-12-13T01:34:45.976Z,996.5
2022-12-13T01:36:02.270Z,996.5
2022-12-13T01:37:18.554Z,996.4
2022-12-13T01:38:34.850Z,996.4
2022-12-13T01:39:51.162Z,996.5
2022-12-13T01:41:07.440Z,996.5
2022-12-13T01:42:23.747Z,996.5
2022-12-13T01:43:40.028Z,996.5
2022-12-13T01:44:56.328Z,996.4
2022-12-13T01:46:12.630Z,996.5
2022-12-13T01:47:29.045Z,996.4
2022-12-13T01:48:45.341Z,996.4
2022-12-13T01:50:01.643Z,996.4
2022-12-13T01:51:17.924Z,996.4
2022-12-13T01:52:34.214Z,996.4
2022-12-13T01:53:50.510Z,996.4
2022-12-13T01:55:06.804Z,996.4
2022-12-13T01:56:23.107Z,996.3
2022-12-13T01:57:39.401Z,996.3
2022-12-13T01:58:55.686Z,996.3
2022-12-13T02:00:11.980Z,996.3
2022-12-13T02:01:28.290Z,996.3
2022-12-13T02:02:44.577Z,996.3
2022-12-13T02:03:59.887Z,996.3
2022-12-13T02:05:16.178Z,996.3
2022-12-13T02:06:32.478Z,996.3
2022-12-13T02:07:48.782Z,996.2
2022-12-13T02:09:05.072Z,996.3
2022-12-13T02:10:21.373Z,996.3
2022-12-13T02:11:37.651Z,996.3
2022-12-13T02:12:53.965Z,996.3
2022-12-13T02:14:10.240Z,996.3
2022-12-13T02:15:26.535Z,996.3
2022-12-13T02:16:42.833Z,996.3
2022-12-13T02:17:59.126Z,996.3
2022-12-13T02:19:15.423Z,996.3
2022-12-13T02:20:30.738Z,996.3
2022-12-13T02:21:47.036Z,996.3
2022-12-13T02:23:03.322Z,996.3
2022-12-13T02:24:19.627Z,996.2
2022-12-13T02:25:35.914Z,996.3
2022-12-13T02:26:52.211Z,996.3
2022-12-13T02:28:08.501Z,996.3
2022-12-13T02:29:24.796Z,996.3
2022-12-13T02:30:41.097Z,996.3
2022-12-13T02:31:57.392Z,996.3
2022-12-13T02:33:13.679Z,996.3
2022-12-13T02:34:29.973Z,996.3
2022-12-13T02:35:46.272Z,996.3
2022-12-13T02:37:01.597Z,996.3
2022-12-13T02:38:17.882Z,996.3
2022-12-13T02:39:34.186Z,996.3
2022-12-13T02:40:50.463Z,996.3
2022-12-13T02:42:06.766Z,996.3
2022-12-13T02:43:23.065Z,996.3
2022-12-13T02:44:39.346Z,996.3
2022-12-13T02:45:55.659Z,996.2
2022-12-13T02:47:11.939Z,996.2
2022-12-13T02:48:28.230Z,996.2
2022-12-13T02:49:44.542Z,996.3
2022-12-13T02:51:00.836Z,996.3
2022-12-13T02:52:17.128Z,996.3
2022-12-13T02:53:32.438Z,996.3
2022-12-13T02:54:48.731Z,996.3
2022-12-13T02:56:05.021Z,996.4
2022-12-13T02:57:21.321Z,996.3
2022-12-13T02:58:37.624Z,996.3
2022-12-13T02:59:53.911Z,996.3
2022-12-13T03:01:10.203Z,996.4
2022-12-13T03:02:26.505Z,996.3
2022-12-13T03:03:42.785Z,996.3
2022-12-13T03:04:59.096Z,996.3
2022-12-13T03:06:15.375Z,996.3
2022-12-13T03:07:31.670Z,996.3
2022-12-13T03:08:47.965Z,996.3
2022-12-13T03:10:04.260Z,996.3
2022-12-13T03:11:19.584Z,996.3
2022-12-13T03:12:35.871Z,996.3
2022-12-13T03:13:52.172Z,996.3
2022-12-13T03:15:08.458Z,996.3
2022-12-13T03:16:24.754Z,996.3
2022-12-13T03:17:41.047Z,996.3
2022-12-13T03:18:57.349Z,996.3
2022-12-13T03:20:13.640Z,996.3
2022-12-13T03:21:29.940Z,996.3
2022-12-13T03:22:46.236Z,996.3
2022-12-13T03:24:02.523Z,996.3
2022-12-13T03:25:18.809Z,996.3
2022-12-13T03:26:35.115Z,996.3
2022-12-13T03:27:51.415Z,996.3
2022-12-13T03:29:06.712Z,996.3
2022-12-13T03:30:23.015Z,996.3
2022-12-13T03:31:39.312Z,996.3
2022-12-13T03:32:55.600Z,996.3
2022-12-13T03:34:11.905Z,996.2
2022-12-13T03:35:28.204Z,996.2
2022-12-13T03:36:44.498Z,996.3
2022-12-13T03:38:00.782Z,996.2
2022-12-13T03:39:17.072Z,996.2
2022-12-13T03:40:33.382Z,996.2
2022-12-13T03:41:49.665Z,996.2
2022-12-13T03:43:05.968Z,996.1
2022-12-13T03:44:22.254Z,996.2
2022-12-13T03:45:38.552Z,996.1
2022-12-13T03:46:53.859Z,996.1
2022-12-13T03:48:10.156Z,996.1
2022-12-13T03:49:26.448Z,996.1
2022-12-13T03:50:42.746Z,996.1
2022-12-13T03:51:59.039Z,996.1
2022-12-13T03:53:15.349Z,996.1
2022-12-13T03:54:31.644Z,996.2
2022-12-13T03:55:47.931Z,996.1
2022-12-13T03:57:04.227Z,996.1
2022-12-13T03:58:20.518Z,996.1
2022-12-13T03:59:36.825Z,996.1
2022-12-13T04:00:53.105Z,996.1
2022-12-13T04:02:09.414Z,996.1
2022-12-13T04:03:25.705Z,996.1
2022-12-13T04:04:41.012Z,996.1
2022-12-13T04:05:57.343Z,996.1
2022-12-13T04:07:13.639Z,996.1
2022-12-13T04:08:29.923Z,996.1
2022-12-13T04:09:46.215Z,996.2
2022-12-13T04:11:02.507Z,996.1
2022-12-13T04:12:18.811Z,996.1
2022-12-13T04:13:35.110Z,996.2
2022-12-13T04:14:51.409Z,996.2
2022-12-13T04:16:07.694Z,996.2
2022-12-13T04:17:23.996Z,996.1
2022-12-13T04:18:40.294Z,996.1
2022-12-13T04:19:56.585Z,996.1
2022-12-13T04:21:12.874Z,996.1
2022-12-13T04:22:28.194Z,996.1
2022-12-13T04:23:44.487Z,996.1
2022-12-13T04:25:00.784Z,996.1
2022-12-13T04:26:17.078Z,996.1
2022-12-13T04:27:33.366Z,996.2
2022-12-13T04:28:49.667Z,996.1
2022-12-13T04:30:05.957Z,996.1
2022-12-13T04:31:22.260Z,996.1
2022-12-13T04:32:38.551Z,996.1
2022-12-13T04:33:54.845Z,996.1
2022-12-13T04:35:11.150Z,996.1
2022-12-13T04:36:27.439Z,996.1
2022-12-13T04:37:43.724Z,996.1
2022-12-13T04:39:00.021Z,996.1
2022-12-13T04:40:15.332Z,996.1
2022-12-13T04:41:31.626Z,996.1
2022-12-13T04:42:47.925Z,996.1
2022-12-13T04:44:04.231Z,996
2022-12-13T04:45:20.512Z,996.1
2022-12-13T04:46:36.809Z,996.1
2022-12-13T04:47:53.110Z,996.1
2022-12-13T04:49:09.415Z,996.1
2022-12-13T04:50:25.707Z,996.1
2022-12-13T04:51:41.987Z,996.1
2022-12-13T04:52:57.308Z,996.1
2022-12-13T04:54:13.612Z,996.1
2022-12-13T04:55:29.901Z,996.1
2022-12-13T04:56:46.194Z,996.1
2022-12-13T04:58:02.498Z,996.1
2022-12-13T04:59:18.779Z,996.1
2022-12-13T05:00:35.076Z,996
2022-12-13T05:01:51.372Z,996.1
2022-12-13T05:03:07.683Z,996.1
2022-12-13T05:04:23.959Z,996
2022-12-13T05:05:40.262Z,996
2022-12-13T05:06:56.551Z,996.1
2022-12-13T05:08:12.849Z,996.1
2022-12-13T05:09:28.165Z,996.1
2022-12-13T05:10:44.451Z,996.1
2022-12-13T05:12:00.747Z,996.1
2022-12-13T05:13:17.043Z,996
2022-12-13T05:14:33.354Z,996
2022-12-13T05:15:49.634Z,996
2022-12-13T05:17:05.930Z,996
2022-12-13T05:18:22.231Z,996
2022-12-13T05:19:38.536Z,996
2022-12-13T05:20:54.827Z,996
2022-12-13T05:22:11.116Z,996
2022-12-13T05:23:27.409Z,996
2022-12-13T05:24:43.701Z,996
2022-12-13T05:25:59.996Z,995.9
2022-12-13T05:27:15.315Z,995.9
2022-12-13T05:28:31.611Z,996
2022-12-13T05:29:47.907Z,996
2022-12-13T05:31:04.188Z,996
2022-12-13T05:32:20.488Z,996
2022-12-13T05:33:36.791Z,996
2022-12-13T05:34:53.084Z,996
2022-12-13T05:36:09.370Z,996.1
2022-12-13T05:37:25.664Z,996.1
2022-12-13T05:38:41.976Z,996.1
2022-12-13T05:39:58.255Z,996.1
2022-12-13T05:41:14.549Z,996
2022-12-13T05:42:30.851Z,996.1
2022-12-13T05:43:47.140Z,996.1
2022-12-13T05:45:02.459Z,996.1
2022-12-13T05:46:18.751Z,996.1
2022-12-13T05:47:35.046Z,996.1
2022-12-13T05:48:51.349Z,996.1
2022-12-13T05:50:07.629Z,996.1
2022-12-13T05:51:23.931Z,996.2
2022-12-13T05:52:40.220Z,996.2
2022-12-13T05:53:56.512Z,996.1
2022-12-13T05:55:12.812Z,996.1
2022-12-13T05:56:29.105Z,996.1
2022-12-13T05:57:45.411Z,996.2
2022-12-13T05:59:01.700Z,996.1
2022-12-13T06:00:18.007Z,996.1
2022-12-13T06:01:34.284Z,996.1
2022-12-13T06:02:49.606Z,996.1
2022-12-13T06:04:05.897Z,996.1
2022-12-13T06:05:22.191Z,996.2
2022-12-13T06:06:38.491Z,996.2
2022-12-13T06:07:54.793Z,996.2
2022-12-13T06:09:11.079Z,996.2
2022-12-13T06:10:27.369Z,996.2
2022-12-13T06:11:43.662Z,996.2
2022-12-13T06:12:59.912Z,996.2
2022-12-13T06:14:16.153Z,996.2
2022-12-13T06:15:32.394Z,996.2
2022-12-13T06:16:48.637Z,996.3
2022-12-13T06:18:04.882Z,996.3
2022-12-13T06:19:21.111Z,996.3
2022-12-13T06:20:36.378Z,996.3
2022-12-13T06:21:52.616Z,996.3
2022-12-13T06:23:08.867Z,996.3
2022-12-13T06:24:25.102Z,996.3
2022-12-13T06:25:41.357Z,996.3
2022-12-13T06:26:57.593Z,996.3
2022-12-13T06:28:13.829Z,996.3
2022-12-13T06:29:30.086Z,996.3
2022-12-13T06:30:46.000Z,996.4
2022-12-13T06:32:02.547Z,996.3
2022-12-13T06:33:18.800Z,996.4
2022-12-13T06:34:35.043Z,996.4
2022-12-13T06:35:51.279Z,996.4
2022-12-13T06:37:07.644Z,996.5
2022-12-13T06:38:23.878Z,996.5
2022-12-13T06:39:40.122Z,996.5
2022-12-13T06:40:56.372Z,996.5
2022-12-13T06:42:12.598Z,996.5
2022-12-13T06:43:28.854Z,996.5
2022-12-13T06:44:45.081Z,996.6
2022-12-13T06:46:01.330Z,996.6
2022-12-13T06:47:17.563Z,996.6
2022-12-13T06:48:33.802Z,996.6
2022-12-13T06:49:50.042Z,996.6
2022-12-13T06:51:06.304Z,996.5
2022-12-13T06:52:22.526Z,996.6
2022-12-13T06:53:37.790Z,996.6
2022-12-13T06:54:54.027Z,996.6
2022-12-13T06:56:10.272Z,996.5
2022-12-13T06:57:26.510Z,996.5
2022-12-13T06:58:42.753Z,996.6
2022-12-13T06:59:58.991Z,996.6
2022-12-13T07:01:15.234Z,996.5
2022-12-13T07:02:31.480Z,996.5
2022-12-13T07:03:47.717Z,996.5
2022-12-13T07:05:03.952Z,996.5
2022-12-13T07:06:20.195Z,996.5
2022-12-13T07:07:36.451Z,996.5
2022-12-13T07:08:52.685Z,996.5
2022-12-13T07:10:07.939Z,996.5
2022-12-13T07:11:24.175Z,996.5
2022-12-13T07:12:40.426Z,996.5
2022-12-13T07:13:56.655Z,996.5
2022-12-13T07:15:12.899Z,996.5
2022-12-13T07:16:29.155Z,996.5
2022-12-13T07:17:45.380Z,996.5
2022-12-13T07:19:01.625Z,996.4
2022-12-13T07:20:17.868Z,996.5
2022-12-13T07:21:34.117Z,996.6
2022-12-13T07:22:50.345Z,996.6
2022-12-13T07:24:06.597Z,996.6
2022-12-13T07:25:22.838Z,996.6
2022-12-13T07:26:38.098Z,996.6
2022-12-13T07:27:54.335Z,996.6
2022-12-13T07:29:10.563Z,996.6
2022-12-13T07:30:26.804Z,996.6
2022-12-13T07:31:43.052Z,996.6
2022-12-13T07:32:59.308Z,996.5
2022-12-13T07:34:15.527Z,996.5
2022-12-13T07:35:31.778Z,996.6
2022-12-13T07:36:48.017Z,996.6
2022-12-13T07:38:04.261Z,996.6
2022-12-13T07:39:20.492Z,996.6
2022-12-13T07:40:36.743Z,996.6
2022-12-13T07:41:52.976Z,996.7
2022-12-13T07:43:09.213Z,996.6
2022-12-13T07:44:24.480Z,996.6
2022-12-13T07:45:40.731Z,996.6
2022-12-13T07:46:56.958Z,996.6
2022-12-13T07:48:13.202Z,996.7
2022-12-13T07:49:29.448Z,996.6
2022-12-13T07:50:45.681Z,996.6
2022-12-13T07:52:01.922Z,996.6
2022-12-13T07:53:18.173Z,996.7
2022-12-13T07:54:34.411Z,996.7
2022-12-13T07:55:50.643Z,996.7
2022-12-13T07:57:06.884Z,996.8
2022-12-13T07:58:23.137Z,996.7
2022-12-13T07:59:39.369Z,996.8
2022-12-13T08:00:55.609Z,996.8
2022-12-13T08:02:10.868Z,996.8
2022-12-13T08:03:27.114Z,996.8
2022-12-13T08:04:43.349Z,996.8
2022-12-13T08:05:59.596Z,996.8
2022-12-13T08:07:15.844Z,996.8
2022-12-13T08:08:32.068Z,996.8
2022-12-13T08:09:48.308Z,996.8
2022-12-13T08:11:04.547Z,996.8
2022-12-13T08:12:20.805Z,996.8
2022-12-13T08:13:37.036Z,996.8
2022-12-13T08:14:53.274Z,996.8
2022-12-13T08:16:09.513Z,996.8
2022-12-13T08:17:25.762Z,996.8
2022-12-13T08:18:42.008Z,996.8
2022-12-13T08:21:13.496Z,996.8
2022-12-13T08:22:29.739Z,996.8
2022-12-13T08:23:45.990Z,996.8
2022-12-13T08:25:02.217Z,996.8
2022-12-13T08:26:18.461Z,996.8
2022-12-13T08:27:34.711Z,996.8
2022-12-13T08:28:50.945Z,996.8
2022-12-13T08:30:07.182Z,996.7
2022-12-13T08:31:23.435Z,996.8
2022-12-13T08:32:39.683Z,996.7
2022-12-13T08:33:55.909Z,996.7
2022-12-13T08:35:12.150Z,996.7
2022-12-13T08:36:28.395Z,996.7
2022-12-13T08:37:43.656Z,996.7
2022-12-13T08:38:59.890Z,996.7
2022-12-13T08:40:16.137Z,996.8
2022-12-13T08:41:32.377Z,996.7
2022-12-13T08:42:48.629Z,996.8
2022-12-13T08:44:04.855Z,996.8
2022-12-13T08:45:21.104Z,996.8
2022-12-13T08:46:37.336Z,996.8
2022-12-13T08:47:53.584Z,996.7
2022-12-13T08:49:09.825Z,996.7
2022-12-13T08:50:26.055Z,996.7
2022-12-13T08:51:42.309Z,996.7
2022-12-13T08:52:58.543Z,996.7
2022-12-13T08:54:14.790Z,996.6
2022-12-13T08:55:30.044Z,996.6
2022-12-13T08:56:46.280Z,996.6
2022-12-13T08:58:02.524Z,996.6
2022-12-13T08:59:18.759Z,996.6
2022-12-13T09:00:35.015Z,996.6
2022-12-13T09:01:51.243Z,996.6
2022-12-13T09:03:07.499Z,996.6
2022-12-13T09:04:23.734Z,996.6
2022-12-13T09:05:39.974Z,996.6
2022-12-13T09:06:56.213Z,996.5
2022-12-13T09:08:12.587Z,996.6
2022-12-13T09:09:28.820Z,996.6
2022-12-13T09:10:45.061Z,996.5
2022-12-13T09:12:01.302Z,996.6
2022-12-13T09:13:17.545Z,996.5
2022-12-13T09:14:33.789Z,996.5
2022-12-13T09:15:50.027Z,996.5
2022-12-13T09:17:06.265Z,996.5
2022-12-13T09:18:22.513Z,996.5
2022-12-13T09:19:38.757Z,996.5
2022-12-13T09:20:55.005Z,996.4
2022-12-13T09:22:11.235Z,996.4
2022-12-13T09:23:27.478Z,996.4
2022-12-13T09:24:43.713Z,996.4
2022-12-13T09:25:58.965Z,996.4
2022-12-13T09:27:15.212Z,996.4
2022-12-13T09:28:31.451Z,996.4
2022-12-13T09:29:47.686Z,996.4
2022-12-13T09:31:03.937Z,996.4
2022-12-13T09:32:20.167Z,996.4
2022-12-13T09:33:36.411Z,996.4
2022-12-13T09:34:52.666Z,996.4
2022-12-13T09:36:08.907Z,996.4
2022-12-13T09:37:25.138Z,996.4
2022-12-13T09:38:41.628Z,996.4
2022-12-13T09:39:57.618Z,996.4
2022-12-13T09:41:13.861Z,996.4
2022-12-13T09:42:30.110Z,996.4
2022-12-13T09:43:45.371Z,996.4
2022-12-13T09:45:01.600Z,996.4
2022-12-13T09:46:17.843Z,996.3
2022-12-13T09:47:34.075Z,996.3
2022-12-13T09:48:50.317Z,996.3
2022-12-13T09:50:06.567Z,996.3
2022-12-13T09:51:22.805Z,996.3
2022-12-13T09:52:39.051Z,996.3
2022-12-13T09:53:55.280Z,996.3
2022-12-13T09:55:11.527Z,996.3
2022-12-13T09:56:27.765Z,996.3
2022-12-13T09:57:44.005Z,996.2
2022-12-13T09:59:00.242Z,996.3
2022-12-13T10:00:16.488Z,996.2
2022-12-13T10:01:32.738Z,996.2
2022-12-13T10:02:49.089Z,996.2
2022-12-13T10:04:05.335Z,996.2
2022-12-13T10:05:21.571Z,996.2
2022-12-13T10:06:37.818Z,996.2
2022-12-13T10:07:54.049Z,996.2
2022-12-13T10:09:10.299Z,996.2
2022-12-13T10:10:26.535Z,996.2
2022-12-13T10:11:42.767Z,996.2
2022-12-13T10:12:59.017Z,996.2
2022-12-13T10:14:15.251Z,996.2
2022-12-13T10:15:31.487Z,996.1
2022-12-13T10:16:47.725Z,996.2
2022-12-13T10:18:03.969Z,996.2
2022-12-13T10:19:20.210Z,996.1
2022-12-13T10:20:35.486Z,996.2
2022-12-13T10:21:51.712Z,996.2
2022-12-13T10:23:07.952Z,996.1
2022-12-13T10:24:24.199Z,996.2
2022-12-13T10:25:40.443Z,996.2
2022-12-13T10:26:56.683Z,996.2
2022-12-13T10:28:12.916Z,996.2
2022-12-13T10:29:29.157Z,996.1
2022-12-13T10:30:45.404Z,996.1
2022-12-13T10:32:01.639Z,996.1
2022-12-13T10:33:17.874Z,996.1
2022-12-13T10:34:34.129Z,996.1
2022-12-13T10:35:50.359Z,996.1
2022-12-13T10:37:06.599Z,996.1
2022-12-13T10:38:21.868Z,996.1
2022-12-13T10:39:38.104Z,996.1
2022-12-13T10:40:54.348Z,996.1
2022-12-13T10:42:10.582Z,996.1
2022-12-13T10:43:26.826Z,996.1
2022-12-13T10:44:43.063Z,996
2022-12-13T10:45:59.304Z,996.1
2022-12-13T10:47:15.555Z,996.1
2022-12-13T10:48:31.783Z,996
2022-12-13T10:49:48.020Z,996.1
2022-12-13T10:51:04.270Z,996.1
2022-12-13T10:52:20.501Z,996
2022-12-13T10:53:36.746Z,996.1
2022-12-13T10:54:52.988Z,996
2022-12-13T10:56:08.240Z,996.1
2022-12-13T10:57:24.486Z,996.1
2022-12-13T10:58:40.724Z,996
2022-12-13T10:59:56.973Z,996
2022-12-13T11:01:13.216Z,996.1
2022-12-13T11:02:29.456Z,996.1
2022-12-13T11:03:45.691Z,996
2022-12-13T11:05:01.936Z,996
2022-12-13T11:06:18.165Z,996
2022-12-13T11:07:34.415Z,996
2022-12-13T11:08:50.648Z,996
2022-12-13T11:10:06.902Z,996.1
2022-12-13T11:11:23.145Z,996
2022-12-13T11:12:39.381Z,996
2022-12-13T11:13:54.637Z,996
2022-12-13T11:15:10.876Z,996.1
2022-12-13T11:16:27.123Z,996
2022-12-13T11:17:43.361Z,996.1
2022-12-13T11:18:59.593Z,996
2022-12-13T11:20:15.838Z,996
2022-12-13T11:21:32.073Z,995.9
2022-12-13T11:22:48.327Z,996
2022-12-13T11:24:04.553Z,995.9
2022-12-13T11:25:20.808Z,996
2022-12-13T11:26:37.042Z,995.9
2022-12-13T11:27:53.292Z,995.9
2022-12-13T11:29:09.527Z,995.9
2022-12-13T11:30:25.763Z,996
2022-12-13T11:31:41.027Z,995.9
2022-12-13T11:32:57.250Z,995.9
2022-12-13T11:34:13.499Z,995.9
2022-12-13T11:35:29.734Z,995.9
2022-12-13T11:36:45.994Z,995.8
2022-12-13T11:38:02.221Z,995.8
2022-12-13T11:39:18.462Z,995.8
2022-12-13T11:40:34.706Z,995.8
2022-12-13T11:41:50.953Z,995.8
2022-12-13T11:44:23.420Z,995.8
2022-12-13T11:45:39.674Z,995.8
2022-12-13T11:46:55.904Z,995.8
2022-12-13T11:48:12.154Z,995.8
2022-12-13T11:49:27.408Z,995.8
2022-12-13T11:50:43.642Z,995.8
2022-12-13T11:51:59.883Z,995.8
2022-12-13T11:53:16.128Z,995.8
2022-12-13T11:54:32.367Z,995.7
2022-12-13T11:55:48.602Z,995.7
2022-12-13T11:57:04.858Z,995.7
2022-12-13T11:58:21.080Z,995.7
2022-12-13T11:59:37.337Z,995.7
2022-12-13T12:00:53.575Z,995.6
2022-12-13T12:02:09.808Z,995.6
2022-12-13T12:03:26.057Z,995.6
2022-12-13T12:04:42.286Z,995.6
2022-12-13T12:05:58.531Z,995.5
2022-12-13T12:07:13.797Z,995.6
2022-12-13T12:09:46.264Z,995.6
2022-12-13T12:11:02.507Z,995.6
2022-12-13T12:12:18.757Z,995.6
2022-12-13T12:13:34.994Z,995.7
2022-12-13T12:14:51.243Z,995.7
2022-12-13T12:16:07.487Z,995.7
2022-12-13T12:17:23.710Z,995.7
2022-12-13T12:18:39.958Z,995.7
2022-12-13T12:19:56.191Z,995.7
2022-12-13T12:21:12.446Z,995.7
2022-12-13T12:22:28.674Z,995.7
2022-12-13T12:23:44.915Z,995.6
2022-12-13T12:25:00.190Z,995.6
2022-12-13T12:26:16.417Z,995.6
2022-12-13T12:27:32.657Z,995.6
2022-12-13T12:28:48.908Z,995.6
2022-12-13T12:30:05.133Z,995.6
2022-12-13T12:31:21.391Z,995.6
2022-12-13T12:32:37.615Z,995.6
2022-12-13T12:33:53.868Z,995.6
2022-12-13T12:35:10.109Z,995.6
2022-12-13T12:36:26.339Z,995.6
2022-12-13T12:37:42.582Z,995.6
2022-12-13T12:38:58.817Z,995.6
2022-12-13T12:40:15.070Z,995.6
2022-12-13T12:41:31.301Z,995.6
2022-12-13T12:42:46.554Z,995.6
2022-12-13T12:44:02.795Z,995.5
2022-12-13T12:45:19.042Z,995.5
2022-12-13T12:46:35.279Z,995.5
2022-12-13T12:47:51.518Z,995.5
2022-12-13T12:49:07.765Z,995.5
2022-12-13T12:50:23.999Z,995.5
2022-12-13T12:51:40.241Z,995.5
2022-12-13T12:52:56.483Z,995.5
2022-12-13T12:54:12.719Z,995.4
2022-12-13T12:55:28.968Z,995.4
2022-12-13T12:56:45.214Z,995.5
2022-12-13T12:58:01.452Z,995.4
2022-12-13T12:59:17.691Z,995.5
2022-12-13T13:00:32.953Z,995.5
2022-12-13T13:01:49.178Z,995.5
2022-12-13T13:03:05.429Z,995.5
2022-12-13T13:04:21.659Z,995.5
2022-12-13T13:05:37.904Z,995.5
2022-12-13T13:06:54.140Z,995.4
2022-12-13T13:08:10.382Z,995.5
2022-12-13T13:09:26.630Z,995.5
2022-12-13T13:10:42.876Z,995.5
2022-12-13T13:11:59.105Z,995.5
2022-12-13T13:13:15.355Z,995.6
2022-12-13T13:14:31.587Z,995.5
2022-12-13T13:15:47.839Z,995.5
2022-12-13T13:17:04.069Z,995.6
2022-12-13T13:18:19.322Z,995.6
2022-12-13T13:19:35.562Z,995.6
2022-12-13T13:20:51.804Z,995.6
2022-12-13T13:22:08.043Z,995.6
2022-12-13T13:23:23.313Z,995.6
2022-12-13T13:24:39.558Z,995.5
2022-12-13T13:25:55.788Z,995.5
2022-12-13T13:27:12.030Z,995.5
2022-12-13T13:28:28.278Z,995.5
2022-12-13T13:29:44.513Z,995.5
2022-12-13T13:31:00.751Z,995.5
2022-12-13T13:32:16.997Z,995.5
2022-12-13T13:33:33.235Z,995.6
2022-12-13T13:34:49.480Z,995.5
2022-12-13T13:36:05.716Z,995.5
2022-12-13T13:37:21.957Z,995.5
2022-12-13T13:38:38.197Z,995.5
2022-12-13T13:39:54.451Z,995.5
2022-12-13T13:41:09.700Z,995.5
2022-12-13T13:42:25.932Z,995.6
2022-12-13T13:43:42.188Z,995.6
2022-12-13T13:44:58.422Z,995.6
2022-12-13T13:46:14.662Z,995.5
2022-12-13T13:47:30.908Z,995.6
2022-12-13T13:48:47.138Z,995.6
2022-12-13T13:50:03.378Z,995.6
2022-12-13T13:51:19.620Z,995.6
2022-12-13T13:52:35.920Z,995.7
2022-12-13T13:53:52.165Z,995.7
2022-12-13T13:55:08.406Z,995.7
2022-12-13T13:56:24.647Z,995.7
2022-12-13T13:57:40.886Z,995.7
2022-12-13T13:58:56.144Z,995.7
2022-12-13T14:00:12.388Z,995.8
2022-12-13T14:01:28.624Z,995.8
2022-12-13T14:02:44.858Z,995.8
2022-12-13T14:04:01.101Z,995.8
2022-12-13T14:05:17.345Z,995.9
2022-12-13T14:06:33.599Z,995.8
2022-12-13T14:07:49.839Z,995.9
2022-12-13T14:09:06.068Z,995.8
2022-12-13T14:10:22.303Z,995.8
2022-12-13T14:11:38.549Z,995.8
2022-12-13T14:12:54.780Z,995.9
2022-12-13T14:14:11.039Z,995.9
2022-12-13T14:15:27.266Z,995.9
2022-12-13T14:16:42.526Z,995.9
2022-12-13T14:17:58.766Z,995.8
2022-12-13T14:19:15.019Z,995.8
2022-12-13T14:20:31.253Z,995.8
2022-12-13T14:21:47.492Z,995.8
2022-12-13T14:23:03.723Z,995.8
2022-12-13T14:24:19.982Z,995.7
2022-12-13T14:25:36.213Z,995.8
2022-12-13T14:26:52.463Z,995.8
2022-12-13T14:28:08.690Z,995.7
2022-12-13T14:29:24.939Z,995.7
2022-12-13T14:30:41.179Z,995.7
2022-12-13T14:31:57.425Z,995.7
2022-12-13T14:33:13.657Z,995.7
2022-12-13T14:34:28.909Z,995.7
2022-12-13T14:35:45.156Z,995.7
2022-12-13T14:37:01.400Z,995.7
2022-12-13T14:38:17.635Z,995.7
2022-12-13T14:39:33.892Z,995.7
2022-12-13T14:40:50.112Z,995.7
2022-12-13T14:42:06.355Z,995.7
2022-12-13T14:43:22.594Z,995.7
2022-12-13T14:44:38.837Z,995.6
2022-12-13T14:45:55.083Z,995.6
2022-12-13T14:47:11.326Z,995.7
2022-12-13T14:48:27.553Z,995.7
2022-12-13T14:49:43.807Z,995.7
2022-12-13T14:51:00.038Z,995.6
2022-12-13T14:52:16.408Z,995.6
2022-12-13T14:53:32.642Z,995.6
2022-12-13T14:54:48.884Z,995.6
2022-12-13T14:56:05.128Z,995.5
2022-12-13T14:57:21.373Z,995.5
2022-12-13T14:58:37.610Z,995.5
2022-12-13T14:59:53.865Z,995.5
2022-12-13T15:01:10.093Z,995.5
2022-12-13T15:02:26.335Z,995.5
2022-12-13T15:03:42.571Z,995.5
2022-12-13T15:04:58.812Z,995.5
2022-12-13T15:06:15.058Z,995.6
2022-12-13T15:07:31.310Z,995.6
2022-12-13T15:08:46.548Z,995.5
2022-12-13T15:10:02.799Z,995.5
2022-12-13T15:11:19.035Z,995.5
2022-12-13T15:12:35.267Z,995.5
2022-12-13T15:13:51.512Z,995.5
2022-12-13T15:15:07.757Z,995.5
2022-12-13T15:16:24.003Z,995.6
2022-12-13T15:17:40.251Z,995.5
2022-12-13T15:18:56.478Z,995.5
2022-12-13T15:20:12.726Z,995.5
2022-12-13T15:21:28.965Z,995.5
2022-12-13T15:22:45.202Z,995.5
2022-12-13T15:24:01.447Z,995.6
2022-12-13T15:25:16.705Z,995.6
2022-12-13T15:26:32.934Z,995.6
2022-12-13T15:27:49.176Z,995.6
2022-12-13T15:29:05.420Z,995.7
2022-12-13T15:30:21.664Z,995.6
2022-12-13T15:31:37.913Z,995.7
2022-12-13T15:32:54.139Z,995.7
2022-12-13T15:34:10.381Z,995.7
2022-12-13T15:35:26.631Z,995.6
2022-12-13T15:36:42.881Z,995.6
2022-12-13T15:37:59.109Z,995.6
2022-12-13T15:39:15.346Z,995.6
2022-12-13T15:40:31.586Z,995.6
2022-12-13T15:41:46.842Z,995.7
2022-12-13T15:43:03.081Z,995.8
2022-12-13T15:44:19.330Z,995.7
2022-12-13T15:45:35.575Z,995.8
2022-12-13T15:46:51.802Z,995.7
2022-12-13T15:48:08.111Z,995.7
2022-12-13T15:49:24.389Z,995.7
2022-12-13T15:50:40.689Z,995.7
2022-12-13T15:51:56.993Z,995.7
2022-12-13T15:53:13.285Z,995.7
2022-12-13T15:54:29.572Z,995.8
2022-12-13T15:55:45.877Z,995.8
2022-12-13T15:57:02.162Z,995.8
2022-12-13T15:58:18.590Z,995.8
2022-12-13T15:59:34.889Z,995.7
2022-12-13T16:00:51.176Z,995.8
2022-12-13T16:02:07.476Z,995.7
2022-12-13T16:03:23.758Z,995.7
2022-12-13T16:04:40.062Z,995.7
2022-12-13T16:05:56.349Z,995.7
2022-12-13T16:07:12.659Z,995.7
2022-12-13T16:08:28.949Z,995.7
2022-12-13T16:09:45.232Z,995.7
2022-12-13T16:11:01.532Z,995.6
2022-12-13T16:12:17.822Z,995.7
2022-12-13T16:13:34.132Z,995.6
2022-12-13T16:14:49.431Z,995.6
2022-12-13T16:16:05.725Z,995.6
2022-12-13T16:17:22.022Z,995.6
2022-12-13T16:18:38.329Z,995.6
2022-12-13T16:19:54.616Z,995.6
2022-12-13T16:21:10.911Z,995.5
2022-12-13T16:22:27.205Z,995.5
2022-12-13T16:23:43.505Z,995.6
2022-12-13T16:24:59.792Z,995.6
2022-12-13T16:26:16.100Z,995.6
2022-12-13T16:27:32.392Z,995.6
2022-12-13T16:28:48.678Z,995.4